sensor_id;sensor_type;location;lat;lon;timestamp;temperature;humidity
20380;DHT22;10349;48.666;8.948;2024-01-30T00:01:15;0.70;99.90
20380;DHT22;10349;48.666;8.948;2024-01-30T00:03:41;0.70;99.90
20380;DHT22;10349;48.666;8.948;2024-01-30T00:06:07;0.80;99.90
20380;DHT22;10349;48.666;8.948;2024-01-30T00:08:33;0.70;99.90
20380;DHT22;10349;48.666;8.948;2024-01-30T00:10:59;0.70;99.90
20380;DHT22;10349;48.666;8.948;2024-01-30T00:13:24;0.70;99.90
20380;DHT22;10349;48.666;8.948;2024-01-30T00:15:50;0.70;99.90
20380;DHT22;10349;48.666;8.948;2024-01-30T00:18:16;0.60;99.90
20380;DHT22;10349;48.666;8.948;2024-01-30T00:20:41;0.60;99.90
20380;DHT22;10349;48.666;8.948;2024-01-30T00:23:08;0.60;99.90
20380;DHT22;10349;48.666;8.948;2024-01-30T00:25:34;0.60;99.90
20380;DHT22;10349;48.666;8.948;2024-01-30T00:28:00;0.60;99.90
20380;DHT22;10349;48.666;8.948;2024-01-30T00:30:25;0.50;99.90
20380;DHT22;10349;48.666;8.948;2024-01-30T00:32:51;0.50;99.90
20380;DHT22;10349;48.666;8.948;2024-01-30T00:35:16;0.50;99.90
20380;DHT22;10349;48.666;8.948;2024-01-30T00:37:42;0.50;99.90
20380;DHT22;10349;48.666;8.948;2024-01-30T00:40:08;0.50;99.90
20380;DHT22;10349;48.666;8.948;2024-01-30T00:42:35;0.50;99.90
20380;DHT22;10349;48.666;8.948;2024-01-30T00:45:01;0.40;99.90
20380;DHT22;10349;48.666;8.948;2024-01-30T00:47:27;0.40;99.90
20380;DHT22;10349;48.666;8.948;2024-01-30T00:49:54;0.40;99.90
20380;DHT22;10349;48.666;8.948;2024-01-30T00:52:20;0.40;99.90
20380;DHT22;10349;48.666;8.948;2024-01-30T00:54:45;0.40;99.90
20380;DHT22;10349;48.666;8.948;2024-01-30T00:57:11;0.40;99.90
20380;DHT22;10349;48.666;8.948;2024-01-30T00:59:36;0.40;99.90
20380;DHT22;10349;48.666;8.948;2024-01-30T01:02:02;0.40;99.90
20380;DHT22;10349;48.666;8.948;2024-01-30T01:04:28;0.40;99.90
20380;DHT22;10349;48.666;8.948;2024-01-30T01:06:53;0.40;99.90
20380;DHT22;10349;48.666;8.948;2024-01-30T01:09:19;0.30;99.90
20380;DHT22;10349;48.666;8.948;2024-01-30T01:11:44;0.30;99.90
20380;DHT22;10349;48.666;8.948;2024-01-30T01:14:10;0.30;99.90
20380;DHT22;10349;48.666;8.948;2024-01-30T01:16:35;0.30;99.90
20380;DHT22;10349;48.666;8.948;2024-01-30T01:19:01;0.30;99.90
20380;DHT22;10349;48.666;8.948;2024-01-30T01:21:27;0.30;99.90
20380;DHT22;10349;48.666;8.948;2024-01-30T01:23:52;0.30;99.90
20380;DHT22;10349;48.666;8.948;2024-01-30T01:26:18;0.30;99.90
20380;DHT22;10349;48.666;8.948;2024-01-30T01:28:43;0.30;99.90
20380;DHT22;10349;48.666;8.948;2024-01-30T01:31:09;0.20;99.90
20380;DHT22;10349;48.666;8.948;2024-01-30T01:33:35;0.20;99.90
20380;DHT22;10349;48.666;8.948;2024-01-30T01:36:02;0.20;99.90
20380;DHT22;10349;48.666;8.948;2024-01-30T01:38:28;0.20;99.90
20380;DHT22;10349;48.666;8.948;2024-01-30T01:40:54;0.20;99.90
20380;DHT22;10349;48.666;8.948;2024-01-30T01:43:19;0.30;99.90
20380;DHT22;10349;48.666;8.948;2024-01-30T01:45:45;0.20;99.90
20380;DHT22;10349;48.666;8.948;2024-01-30T01:48:11;0.20;99.90
20380;DHT22;10349;48.666;8.948;2024-01-30T01:50:38;0.20;99.90
20380;DHT22;10349;48.666;8.948;2024-01-30T01:53:07;0.20;99.90
20380;DHT22;10349;48.666;8.948;2024-01-30T01:55:34;0.20;99.90
20380;DHT22;10349;48.666;8.948;2024-01-30T01:58:01;0.20;99.90
20380;DHT22;10349;48.666;8.948;2024-01-30T02:00:27;0.20;99.90
20380;DHT22;10349;48.666;8.948;2024-01-30T02:02:53;0.20;99.90
20380;DHT22;10349;48.666;8.948;2024-01-30T02:05:20;0.20;99.90
20380;DHT22;10349;48.666;8.948;2024-01-30T02:07:46;0.10;99.90
20380;DHT22;10349;48.666;8.948;2024-01-30T02:10:12;0.10;99.90
20380;DHT22;10349;48.666;8.948;2024-01-30T02:12:38;0.10;99.90
20380;DHT22;10349;48.666;8.948;2024-01-30T02:15:04;0.10;99.90
20380;DHT22;10349;48.666;8.948;2024-01-30T02:17:30;0.10;99.90
20380;DHT22;10349;48.666;8.948;2024-01-30T02:19:56;0.10;99.90
20380;DHT22;10349;48.666;8.948;2024-01-30T02:22:22;0.10;99.90
20380;DHT22;10349;48.666;8.948;2024-01-30T02:24:49;0.00;99.90
20380;DHT22;10349;48.666;8.948;2024-01-30T02:30:10;0.00;99.90
20380;DHT22;10349;48.666;8.948;2024-01-30T02:32:36;0.00;99.90
20380;DHT22;10349;48.666;8.948;2024-01-30T02:35:01;-0.10;99.90
20380;DHT22;10349;48.666;8.948;2024-01-30T02:37:27;-0.10;99.90
20380;DHT22;10349;48.666;8.948;2024-01-30T02:39:53;-0.10;99.90
20380;DHT22;10349;48.666;8.948;2024-01-30T02:42:18;-0.10;99.90
20380;DHT22;10349;48.666;8.948;2024-01-30T02:44:44;-0.10;99.90
20380;DHT22;10349;48.666;8.948;2024-01-30T02:47:10;-0.20;99.90
20380;DHT22;10349;48.666;8.948;2024-01-30T02:49:35;-0.10;99.90
20380;DHT22;10349;48.666;8.948;2024-01-30T02:52:02;-0.10;99.90
20380;DHT22;10349;48.666;8.948;2024-01-30T02:54:28;-0.20;99.90
20380;DHT22;10349;48.666;8.948;2024-01-30T02:56:56;-0.20;99.90
20380;DHT22;10349;48.666;8.948;2024-01-30T02:59:21;-0.20;99.90
20380;DHT22;10349;48.666;8.948;2024-01-30T03:01:47;-0.20;99.90
20380;DHT22;10349;48.666;8.948;2024-01-30T03:04:13;-0.20;99.90
20380;DHT22;10349;48.666;8.948;2024-01-30T03:06:39;-0.20;99.90
20380;DHT22;10349;48.666;8.948;2024-01-30T03:09:04;-0.20;99.90
20380;DHT22;10349;48.666;8.948;2024-01-30T03:11:30;-0.30;99.90
20380;DHT22;10349;48.666;8.948;2024-01-30T03:13:56;-0.30;99.90
20380;DHT22;10349;48.666;8.948;2024-01-30T03:16:22;-0.30;99.90
20380;DHT22;10349;48.666;8.948;2024-01-30T03:18:47;-0.40;99.90
20380;DHT22;10349;48.666;8.948;2024-01-30T03:21:13;-0.40;99.90
20380;DHT22;10349;48.666;8.948;2024-01-30T03:23:39;-0.30;99.90
20380;DHT22;10349;48.666;8.948;2024-01-30T03:26:05;-0.40;99.90
20380;DHT22;10349;48.666;8.948;2024-01-30T03:28:32;-0.30;99.90
20380;DHT22;10349;48.666;8.948;2024-01-30T03:30:57;-0.40;99.90
20380;DHT22;10349;48.666;8.948;2024-01-30T03:33:23;-0.50;99.90
20380;DHT22;10349;48.666;8.948;2024-01-30T03:35:49;-0.50;99.90
20380;DHT22;10349;48.666;8.948;2024-01-30T03:38:14;-0.50;99.90
20380;DHT22;10349;48.666;8.948;2024-01-30T03:40:40;-0.50;99.90
20380;DHT22;10349;48.666;8.948;2024-01-30T03:43:06;-0.50;99.90
20380;DHT22;10349;48.666;8.948;2024-01-30T03:45:31;-0.50;99.90
20380;DHT22;10349;48.666;8.948;2024-01-30T03:47:57;-0.50;99.90
20380;DHT22;10349;48.666;8.948;2024-01-30T03:50:23;-0.50;99.90
20380;DHT22;10349;48.666;8.948;2024-01-30T03:52:51;-0.60;99.90
20380;DHT22;10349;48.666;8.948;2024-01-30T03:55:17;-0.50;99.90
20380;DHT22;10349;48.666;8.948;2024-01-30T03:57:43;-0.60;99.90
20380;DHT22;10349;48.666;8.948;2024-01-30T04:00:09;-0.60;99.90
20380;DHT22;10349;48.666;8.948;2024-01-30T04:02:40;-0.50;99.90
20380;DHT22;10349;48.666;8.948;2024-01-30T04:05:06;-0.60;99.90
20380;DHT22;10349;48.666;8.948;2024-01-30T04:07:32;-0.50;99.90
20380;DHT22;10349;48.666;8.948;2024-01-30T04:09:57;-0.60;99.90
20380;DHT22;10349;48.666;8.948;2024-01-30T04:12:23;-0.60;99.90
20380;DHT22;10349;48.666;8.948;2024-01-30T04:14:49;-0.60;99.90
20380;DHT22;10349;48.666;8.948;2024-01-30T04:17:14;-0.60;99.90
20380;DHT22;10349;48.666;8.948;2024-01-30T04:19:40;-0.60;99.90
20380;DHT22;10349;48.666;8.948;2024-01-30T04:22:06;-0.60;99.90
20380;DHT22;10349;48.666;8.948;2024-01-30T04:24:32;-0.60;99.90
20380;DHT22;10349;48.666;8.948;2024-01-30T04:26:58;-0.60;99.90
20380;DHT22;10349;48.666;8.948;2024-01-30T04:29:23;-0.60;99.90
20380;DHT22;10349;48.666;8.948;2024-01-30T04:31:49;-0.70;99.90
20380;DHT22;10349;48.666;8.948;2024-01-30T04:34:14;-0.60;99.90
20380;DHT22;10349;48.666;8.948;2024-01-30T04:36:44;-0.70;99.90
20380;DHT22;10349;48.666;8.948;2024-01-30T04:39:10;-0.70;99.90
20380;DHT22;10349;48.666;8.948;2024-01-30T04:41:36;-0.70;99.90
20380;DHT22;10349;48.666;8.948;2024-01-30T04:44:01;-0.70;99.90
20380;DHT22;10349;48.666;8.948;2024-01-30T04:46:27;-0.70;99.90
20380;DHT22;10349;48.666;8.948;2024-01-30T04:48:53;-0.70;99.90
20380;DHT22;10349;48.666;8.948;2024-01-30T04:51:19;-0.80;99.90
20380;DHT22;10349;48.666;8.948;2024-01-30T04:53:44;-0.80;99.90
20380;DHT22;10349;48.666;8.948;2024-01-30T04:56:10;-0.80;99.90
20380;DHT22;10349;48.666;8.948;2024-01-30T04:58:36;-0.80;99.90
20380;DHT22;10349;48.666;8.948;2024-01-30T05:01:02;-0.80;99.90
20380;DHT22;10349;48.666;8.948;2024-01-30T05:03:32;-0.80;99.90
20380;DHT22;10349;48.666;8.948;2024-01-30T05:05:58;-0.80;99.90
20380;DHT22;10349;48.666;8.948;2024-01-30T05:08:23;-0.80;99.90
20380;DHT22;10349;48.666;8.948;2024-01-30T05:10:49;-0.80;99.90
20380;DHT22;10349;48.666;8.948;2024-01-30T05:13:15;-0.80;99.90
20380;DHT22;10349;48.666;8.948;2024-01-30T05:15:40;-0.80;99.90
20380;DHT22;10349;48.666;8.948;2024-01-30T05:18:06;-0.80;99.90
20380;DHT22;10349;48.666;8.948;2024-01-30T05:20:32;-0.80;99.90
20380;DHT22;10349;48.666;8.948;2024-01-30T05:22:57;-0.90;99.90
20380;DHT22;10349;48.666;8.948;2024-01-30T05:25:23;-0.90;99.90
20380;DHT22;10349;48.666;8.948;2024-01-30T05:27:49;-0.90;99.90
20380;DHT22;10349;48.666;8.948;2024-01-30T05:30:15;-0.90;99.90
20380;DHT22;10349;48.666;8.948;2024-01-30T05:32:41;-0.90;99.90
20380;DHT22;10349;48.666;8.948;2024-01-30T05:35:07;-0.90;99.90
20380;DHT22;10349;48.666;8.948;2024-01-30T05:37:33;-0.90;99.90
20380;DHT22;10349;48.666;8.948;2024-01-30T05:39:59;-0.90;99.90
20380;DHT22;10349;48.666;8.948;2024-01-30T05:42:25;-0.90;99.90
20380;DHT22;10349;48.666;8.948;2024-01-30T05:44:51;-0.90;99.90
20380;DHT22;10349;48.666;8.948;2024-01-30T05:47:17;-0.90;99.90
20380;DHT22;10349;48.666;8.948;2024-01-30T05:49:42;-0.80;99.90
20380;DHT22;10349;48.666;8.948;2024-01-30T05:52:08;-0.80;99.90
20380;DHT22;10349;48.666;8.948;2024-01-30T05:54:34;-0.80;99.90
20380;DHT22;10349;48.666;8.948;2024-01-30T05:56:59;-0.90;99.90
20380;DHT22;10349;48.666;8.948;2024-01-30T05:59:25;-0.90;99.90
20380;DHT22;10349;48.666;8.948;2024-01-30T06:01:50;-0.80;99.90
20380;DHT22;10349;48.666;8.948;2024-01-30T06:04:16;-0.80;99.90
20380;DHT22;10349;48.666;8.948;2024-01-30T06:06:42;-0.90;99.90
20380;DHT22;10349;48.666;8.948;2024-01-30T06:09:07;-0.90;99.90
20380;DHT22;10349;48.666;8.948;2024-01-30T06:11:34;-0.90;99.90
20380;DHT22;10349;48.666;8.948;2024-01-30T06:14:00;-0.90;99.90
20380;DHT22;10349;48.666;8.948;2024-01-30T06:16:26;-0.90;99.90
20380;DHT22;10349;48.666;8.948;2024-01-30T06:18:55;-0.90;99.90
20380;DHT22;10349;48.666;8.948;2024-01-30T06:21:21;-1.00;99.90
20380;DHT22;10349;48.666;8.948;2024-01-30T06:23:47;-1.00;99.90
20380;DHT22;10349;48.666;8.948;2024-01-30T06:26:12;-1.00;99.90
20380;DHT22;10349;48.666;8.948;2024-01-30T06:28:38;-1.00;99.90
20380;DHT22;10349;48.666;8.948;2024-01-30T06:31:04;-1.00;99.90
20380;DHT22;10349;48.666;8.948;2024-01-30T06:33:29;-1.00;99.90
20380;DHT22;10349;48.666;8.948;2024-01-30T06:35:55;-1.00;99.90
20380;DHT22;10349;48.666;8.948;2024-01-30T06:38:21;-1.00;99.90
20380;DHT22;10349;48.666;8.948;2024-01-30T06:40:46;-1.00;99.90
20380;DHT22;10349;48.666;8.948;2024-01-30T06:43:12;-1.00;99.90
20380;DHT22;10349;48.666;8.948;2024-01-30T06:45:37;-1.00;99.90
20380;DHT22;10349;48.666;8.948;2024-01-30T06:48:03;-1.00;99.90
20380;DHT22;10349;48.666;8.948;2024-01-30T06:50:29;-1.00;99.90
20380;DHT22;10349;48.666;8.948;2024-01-30T06:52:55;-1.00;99.90
20380;DHT22;10349;48.666;8.948;2024-01-30T06:55:21;-1.00;99.90
20380;DHT22;10349;48.666;8.948;2024-01-30T06:57:46;-1.00;99.90
20380;DHT22;10349;48.666;8.948;2024-01-30T07:00:12;-1.00;99.90
20380;DHT22;10349;48.666;8.948;2024-01-30T07:02:39;-1.00;99.90
20380;DHT22;10349;48.666;8.948;2024-01-30T07:05:04;-1.00;99.90
20380;DHT22;10349;48.666;8.948;2024-01-30T07:07:30;-1.00;99.90
20380;DHT22;10349;48.666;8.948;2024-01-30T07:09:56;-1.00;99.90
20380;DHT22;10349;48.666;8.948;2024-01-30T07:12:25;-1.00;99.90
20380;DHT22;10349;48.666;8.948;2024-01-30T07:14:51;-1.00;99.90
20380;DHT22;10349;48.666;8.948;2024-01-30T07:17:19;-1.10;99.90
20380;DHT22;10349;48.666;8.948;2024-01-30T07:19:44;-1.00;99.90
20380;DHT22;10349;48.666;8.948;2024-01-30T07:22:10;-1.10;99.90
20380;DHT22;10349;48.666;8.948;2024-01-30T07:24:35;-1.00;99.90
20380;DHT22;10349;48.666;8.948;2024-01-30T07:27:01;-1.00;99.90
20380;DHT22;10349;48.666;8.948;2024-01-30T07:29:28;-1.00;99.90
20380;DHT22;10349;48.666;8.948;2024-01-30T07:31:53;-1.00;99.90
20380;DHT22;10349;48.666;8.948;2024-01-30T07:34:19;-0.90;99.90
20380;DHT22;10349;48.666;8.948;2024-01-30T07:36:45;-0.80;99.90
20380;DHT22;10349;48.666;8.948;2024-01-30T07:39:12;-0.90;99.90
20380;DHT22;10349;48.666;8.948;2024-01-30T07:41:38;-0.80;99.90
20380;DHT22;10349;48.666;8.948;2024-01-30T07:44:03;-0.80;99.90
20380;DHT22;10349;48.666;8.948;2024-01-30T07:46:29;-0.80;99.90
20380;DHT22;10349;48.666;8.948;2024-01-30T07:48:55;-0.70;99.90
20380;DHT22;10349;48.666;8.948;2024-01-30T07:51:22;-0.70;99.90
20380;DHT22;10349;48.666;8.948;2024-01-30T07:53:48;-0.60;99.90
20380;DHT22;10349;48.666;8.948;2024-01-30T07:56:13;-0.60;99.90
20380;DHT22;10349;48.666;8.948;2024-01-30T07:58:39;-0.50;99.90
20380;DHT22;10349;48.666;8.948;2024-01-30T08:01:04;-0.40;99.90
20380;DHT22;10349;48.666;8.948;2024-01-30T08:03:30;-0.30;99.90
20380;DHT22;10349;48.666;8.948;2024-01-30T08:05:55;-0.20;99.90
20380;DHT22;10349;48.666;8.948;2024-01-30T08:08:21;-0.20;99.90
20380;DHT22;10349;48.666;8.948;2024-01-30T08:10:47;-0.20;99.90
20380;DHT22;10349;48.666;8.948;2024-01-30T08:13:13;-0.10;99.90
20380;DHT22;10349;48.666;8.948;2024-01-30T08:15:39;-0.10;99.90
20380;DHT22;10349;48.666;8.948;2024-01-30T08:18:05;0.00;99.90
20380;DHT22;10349;48.666;8.948;2024-01-30T08:20:32;0.00;99.90
20380;DHT22;10349;48.666;8.948;2024-01-30T08:22:57;0.10;99.90
20380;DHT22;10349;48.666;8.948;2024-01-30T08:25:23;0.10;99.90
20380;DHT22;10349;48.666;8.948;2024-01-30T08:27:49;0.20;99.90
20380;DHT22;10349;48.666;8.948;2024-01-30T08:30:14;0.30;99.90
20380;DHT22;10349;48.666;8.948;2024-01-30T08:32:40;0.30;99.90
20380;DHT22;10349;48.666;8.948;2024-01-30T08:35:06;0.40;99.90
20380;DHT22;10349;48.666;8.948;2024-01-30T08:37:32;0.40;99.90
20380;DHT22;10349;48.666;8.948;2024-01-30T08:39:57;0.50;99.90
20380;DHT22;10349;48.666;8.948;2024-01-30T08:42:23;0.50;99.90
20380;DHT22;10349;48.666;8.948;2024-01-30T08:44:49;0.60;99.90
20380;DHT22;10349;48.666;8.948;2024-01-30T08:47:16;0.70;99.90
20380;DHT22;10349;48.666;8.948;2024-01-30T08:49:43;0.80;99.90
20380;DHT22;10349;48.666;8.948;2024-01-30T08:52:10;0.80;99.90
20380;DHT22;10349;48.666;8.948;2024-01-30T08:54:35;0.90;99.90
20380;DHT22;10349;48.666;8.948;2024-01-30T08:57:01;1.00;99.90
20380;DHT22;10349;48.666;8.948;2024-01-30T08:59:27;1.10;99.90
20380;DHT22;10349;48.666;8.948;2024-01-30T09:01:53;1.10;99.90
20380;DHT22;10349;48.666;8.948;2024-01-30T09:04:21;1.20;99.90
20380;DHT22;10349;48.666;8.948;2024-01-30T09:06:47;1.40;99.90
20380;DHT22;10349;48.666;8.948;2024-01-30T09:09:13;1.40;99.90
20380;DHT22;10349;48.666;8.948;2024-01-30T09:11:40;1.60;99.90
20380;DHT22;10349;48.666;8.948;2024-01-30T09:14:06;1.80;99.90
20380;DHT22;10349;48.666;8.948;2024-01-30T09:16:31;1.90;99.90
20380;DHT22;10349;48.666;8.948;2024-01-30T09:18:57;2.10;99.90
20380;DHT22;10349;48.666;8.948;2024-01-30T09:21:23;2.20;99.90
20380;DHT22;10349;48.666;8.948;2024-01-30T09:23:49;2.40;99.90
20380;DHT22;10349;48.666;8.948;2024-01-30T09:26:14;2.50;99.90
20380;DHT22;10349;48.666;8.948;2024-01-30T09:28:40;2.70;99.90
20380;DHT22;10349;48.666;8.948;2024-01-30T09:31:11;2.80;99.90
20380;DHT22;10349;48.666;8.948;2024-01-30T09:33:38;2.90;99.90
20380;DHT22;10349;48.666;8.948;2024-01-30T09:36:05;3.10;99.90
20380;DHT22;10349;48.666;8.948;2024-01-30T09:38:31;3.20;99.90
20380;DHT22;10349;48.666;8.948;2024-01-30T09:41:02;3.30;99.90
20380;DHT22;10349;48.666;8.948;2024-01-30T09:43:32;3.40;99.90
20380;DHT22;10349;48.666;8.948;2024-01-30T09:45:59;3.60;99.90
20380;DHT22;10349;48.666;8.948;2024-01-30T09:48:25;3.60;99.90
20380;DHT22;10349;48.666;8.948;2024-01-30T09:50:52;3.80;99.90
20380;DHT22;10349;48.666;8.948;2024-01-30T09:53:19;3.90;99.90
20380;DHT22;10349;48.666;8.948;2024-01-30T09:55:45;4.00;99.90
20380;DHT22;10349;48.666;8.948;2024-01-30T09:58:12;4.10;99.90
20380;DHT22;10349;48.666;8.948;2024-01-30T10:00:39;4.30;99.90
20380;DHT22;10349;48.666;8.948;2024-01-30T10:03:04;4.40;99.90
20380;DHT22;10349;48.666;8.948;2024-01-30T10:05:31;4.50;99.90
20380;DHT22;10349;48.666;8.948;2024-01-30T10:07:59;4.70;99.90
20380;DHT22;10349;48.666;8.948;2024-01-30T10:10:25;4.80;99.90
20380;DHT22;10349;48.666;8.948;2024-01-30T10:12:51;5.00;99.90
20380;DHT22;10349;48.666;8.948;2024-01-30T10:15:18;5.10;99.90
20380;DHT22;10349;48.666;8.948;2024-01-30T10:17:45;5.30;99.90
20380;DHT22;10349;48.666;8.948;2024-01-30T10:20:12;5.50;99.90
20380;DHT22;10349;48.666;8.948;2024-01-30T10:22:39;5.60;99.90
20380;DHT22;10349;48.666;8.948;2024-01-30T10:25:05;5.80;99.90
20380;DHT22;10349;48.666;8.948;2024-01-30T10:27:31;6.00;99.90
20380;DHT22;10349;48.666;8.948;2024-01-30T10:29:57;6.20;99.90
20380;DHT22;10349;48.666;8.948;2024-01-30T10:32:23;6.30;99.90
20380;DHT22;10349;48.666;8.948;2024-01-30T10:34:48;6.40;99.90
20380;DHT22;10349;48.666;8.948;2024-01-30T10:37:16;6.50;99.90
20380;DHT22;10349;48.666;8.948;2024-01-30T10:39:45;6.70;99.90
20380;DHT22;10349;48.666;8.948;2024-01-30T10:42:17;6.80;99.90
20380;DHT22;10349;48.666;8.948;2024-01-30T10:47:22;7.10;99.90
20380;DHT22;10349;48.666;8.948;2024-01-30T10:49:51;7.20;99.90
20380;DHT22;10349;48.666;8.948;2024-01-30T10:52:18;7.30;99.90
20380;DHT22;10349;48.666;8.948;2024-01-30T10:54:44;7.40;99.90
20380;DHT22;10349;48.666;8.948;2024-01-30T10:57:11;7.60;99.90
20380;DHT22;10349;48.666;8.948;2024-01-30T10:59:37;7.70;99.90
20380;DHT22;10349;48.666;8.948;2024-01-30T11:02:03;7.90;99.90
20380;DHT22;10349;48.666;8.948;2024-01-30T11:04:36;8.00;99.90
20380;DHT22;10349;48.666;8.948;2024-01-30T11:07:25;8.20;99.90
20380;DHT22;10349;48.666;8.948;2024-01-30T11:10:01;8.40;99.90
20380;DHT22;10349;48.666;8.948;2024-01-30T11:12:27;8.40;99.90
20380;DHT22;10349;48.666;8.948;2024-01-30T11:15:13;8.60;99.90
20380;DHT22;10349;48.666;8.948;2024-01-30T11:20:25;8.80;99.90
20380;DHT22;10349;48.666;8.948;2024-01-30T11:22:52;8.80;99.90
20380;DHT22;10349;48.666;8.948;2024-01-30T11:25:20;8.80;99.90
20380;DHT22;10349;48.666;8.948;2024-01-30T11:27:47;8.90;99.90
20380;DHT22;10349;48.666;8.948;2024-01-30T11:30:25;9.00;99.90
20380;DHT22;10349;48.666;8.948;2024-01-30T11:33:06;9.10;99.90
20380;DHT22;10349;48.666;8.948;2024-01-30T11:35:35;9.20;99.90
20380;DHT22;10349;48.666;8.948;2024-01-30T11:38:02;9.20;99.90
20380;DHT22;10349;48.666;8.948;2024-01-30T11:40:31;9.30;99.90
20380;DHT22;10349;48.666;8.948;2024-01-30T11:42:59;9.30;99.90
20380;DHT22;10349;48.666;8.948;2024-01-30T11:45:26;9.40;99.90
20380;DHT22;10349;48.666;8.948;2024-01-30T11:47:53;9.40;99.90
20380;DHT22;10349;48.666;8.948;2024-01-30T11:50:19;9.50;99.90
20380;DHT22;10349;48.666;8.948;2024-01-30T11:52:44;9.40;99.90
20380;DHT22;10349;48.666;8.948;2024-01-30T11:55:10;9.40;99.90
20380;DHT22;10349;48.666;8.948;2024-01-30T11:57:39;9.50;99.90
20380;DHT22;10349;48.666;8.948;2024-01-30T12:00:05;9.50;99.90
20380;DHT22;10349;48.666;8.948;2024-01-30T12:02:38;9.50;99.90
20380;DHT22;10349;48.666;8.948;2024-01-30T12:05:08;9.50;99.90
20380;DHT22;10349;48.666;8.948;2024-01-30T12:07:34;9.60;99.90
20380;DHT22;10349;48.666;8.948;2024-01-30T12:10:00;9.80;99.90
20380;DHT22;10349;48.666;8.948;2024-01-30T12:12:26;9.80;99.90
20380;DHT22;10349;48.666;8.948;2024-01-30T12:14:52;9.90;99.90
20380;DHT22;10349;48.666;8.948;2024-01-30T12:17:44;9.90;99.90
20380;DHT22;10349;48.666;8.948;2024-01-30T12:20:11;10.00;99.90
20380;DHT22;10349;48.666;8.948;2024-01-30T12:22:42;10.10;99.90
20380;DHT22;10349;48.666;8.948;2024-01-30T12:25:12;10.20;99.90
20380;DHT22;10349;48.666;8.948;2024-01-30T12:27:39;10.20;99.90
20380;DHT22;10349;48.666;8.948;2024-01-30T12:30:07;10.30;99.90
20380;DHT22;10349;48.666;8.948;2024-01-30T12:32:46;10.30;99.90
20380;DHT22;10349;48.666;8.948;2024-01-30T12:35:14;10.20;99.90
20380;DHT22;10349;48.666;8.948;2024-01-30T12:37:40;10.30;99.90
20380;DHT22;10349;48.666;8.948;2024-01-30T12:40:13;10.30;99.90
20380;DHT22;10349;48.666;8.948;2024-01-30T12:42:43;10.40;99.90
20380;DHT22;10349;48.666;8.948;2024-01-30T12:45:14;10.40;99.90
20380;DHT22;10349;48.666;8.948;2024-01-30T12:47:41;10.50;99.90
20380;DHT22;10349;48.666;8.948;2024-01-30T12:50:07;10.50;99.90
20380;DHT22;10349;48.666;8.948;2024-01-30T12:52:32;10.50;99.90
20380;DHT22;10349;48.666;8.948;2024-01-30T12:54:58;10.60;99.90
20380;DHT22;10349;48.666;8.948;2024-01-30T12:57:24;10.60;99.90
20380;DHT22;10349;48.666;8.948;2024-01-30T12:59:49;10.70;99.90
20380;DHT22;10349;48.666;8.948;2024-01-30T13:02:15;10.70;99.90
20380;DHT22;10349;48.666;8.948;2024-01-30T13:04:42;10.80;99.90
20380;DHT22;10349;48.666;8.948;2024-01-30T13:07:08;10.80;99.90
20380;DHT22;10349;48.666;8.948;2024-01-30T13:09:34;10.90;99.90
20380;DHT22;10349;48.666;8.948;2024-01-30T13:11:59;10.90;99.90
20380;DHT22;10349;48.666;8.948;2024-01-30T13:14:25;10.90;99.90
20380;DHT22;10349;48.666;8.948;2024-01-30T13:16:51;10.90;99.90
20380;DHT22;10349;48.666;8.948;2024-01-30T13:19:18;10.90;99.90
20380;DHT22;10349;48.666;8.948;2024-01-30T13:21:44;11.00;99.90
20380;DHT22;10349;48.666;8.948;2024-01-30T13:24:09;11.00;99.90
20380;DHT22;10349;48.666;8.948;2024-01-30T13:26:35;11.00;99.90
20380;DHT22;10349;48.666;8.948;2024-01-30T13:29:01;11.00;99.90
20380;DHT22;10349;48.666;8.948;2024-01-30T13:31:27;11.10;99.90
20380;DHT22;10349;48.666;8.948;2024-01-30T13:33:53;11.10;99.90
20380;DHT22;10349;48.666;8.948;2024-01-30T13:36:19;11.20;99.90
20380;DHT22;10349;48.666;8.948;2024-01-30T13:38:45;11.20;99.90
20380;DHT22;10349;48.666;8.948;2024-01-30T13:41:10;11.30;99.90
20380;DHT22;10349;48.666;8.948;2024-01-30T13:43:36;11.30;99.90
20380;DHT22;10349;48.666;8.948;2024-01-30T13:46:02;11.30;99.90
20380;DHT22;10349;48.666;8.948;2024-01-30T13:48:28;11.40;99.90
20380;DHT22;10349;48.666;8.948;2024-01-30T13:50:55;11.50;99.90
20380;DHT22;10349;48.666;8.948;2024-01-30T13:53:21;11.50;99.90
20380;DHT22;10349;48.666;8.948;2024-01-30T13:55:46;11.60;99.90
20380;DHT22;10349;48.666;8.948;2024-01-30T13:58:12;11.70;99.90
20380;DHT22;10349;48.666;8.948;2024-01-30T14:00:38;11.70;99.90
20380;DHT22;10349;48.666;8.948;2024-01-30T14:03:04;11.70;99.90
20380;DHT22;10349;48.666;8.948;2024-01-30T14:05:30;11.70;99.90
20380;DHT22;10349;48.666;8.948;2024-01-30T14:07:57;11.80;99.90
20380;DHT22;10349;48.666;8.948;2024-01-30T14:10:23;11.70;99.90
20380;DHT22;10349;48.666;8.948;2024-01-30T14:12:48;11.80;99.90
20380;DHT22;10349;48.666;8.948;2024-01-30T14:15:14;11.80;99.90
20380;DHT22;10349;48.666;8.948;2024-01-30T14:17:41;11.80;99.90
20380;DHT22;10349;48.666;8.948;2024-01-30T14:20:07;11.80;99.90
20380;DHT22;10349;48.666;8.948;2024-01-30T14:22:36;11.70;99.90
20380;DHT22;10349;48.666;8.948;2024-01-30T14:25:02;11.80;99.90
20380;DHT22;10349;48.666;8.948;2024-01-30T14:27:31;11.80;99.90
20380;DHT22;10349;48.666;8.948;2024-01-30T14:29:58;11.80;99.90
20380;DHT22;10349;48.666;8.948;2024-01-30T14:32:24;11.80;99.90
20380;DHT22;10349;48.666;8.948;2024-01-30T14:34:50;11.80;99.90
20380;DHT22;10349;48.666;8.948;2024-01-30T14:37:16;11.80;99.90
20380;DHT22;10349;48.666;8.948;2024-01-30T14:39:42;11.80;99.90
20380;DHT22;10349;48.666;8.948;2024-01-30T14:42:08;11.80;99.90
20380;DHT22;10349;48.666;8.948;2024-01-30T14:44:33;11.80;99.90
20380;DHT22;10349;48.666;8.948;2024-01-30T14:47:00;11.70;99.90
20380;DHT22;10349;48.666;8.948;2024-01-30T14:49:26;11.70;99.90
20380;DHT22;10349;48.666;8.948;2024-01-30T14:51:51;11.70;99.90
20380;DHT22;10349;48.666;8.948;2024-01-30T14:54:17;11.60;99.90
20380;DHT22;10349;48.666;8.948;2024-01-30T14:56:44;11.60;99.90
20380;DHT22;10349;48.666;8.948;2024-01-30T14:59:09;11.60;99.90
20380;DHT22;10349;48.666;8.948;2024-01-30T15:01:35;11.70;99.90
20380;DHT22;10349;48.666;8.948;2024-01-30T15:04:00;11.70;99.90
20380;DHT22;10349;48.666;8.948;2024-01-30T15:06:26;11.60;99.90
20380;DHT22;10349;48.666;8.948;2024-01-30T15:08:53;11.60;99.90
20380;DHT22;10349;48.666;8.948;2024-01-30T15:11:18;11.50;99.90
20380;DHT22;10349;48.666;8.948;2024-01-30T15:13:44;11.50;99.90
20380;DHT22;10349;48.666;8.948;2024-01-30T15:16:10;11.40;99.90
20380;DHT22;10349;48.666;8.948;2024-01-30T15:18:35;11.40;99.90
20380;DHT22;10349;48.666;8.948;2024-01-30T15:21:01;11.30;99.90
20380;DHT22;10349;48.666;8.948;2024-01-30T15:23:27;11.30;99.90
20380;DHT22;10349;48.666;8.948;2024-01-30T15:25:52;11.30;99.90
20380;DHT22;10349;48.666;8.948;2024-01-30T15:28:18;11.20;99.90
20380;DHT22;10349;48.666;8.948;2024-01-30T15:30:44;11.30;99.90
20380;DHT22;10349;48.666;8.948;2024-01-30T15:33:10;11.10;99.90
20380;DHT22;10349;48.666;8.948;2024-01-30T15:35:36;11.00;99.90
20380;DHT22;10349;48.666;8.948;2024-01-30T15:38:04;10.90;99.90
20380;DHT22;10349;48.666;8.948;2024-01-30T15:40:34;10.70;99.90